createdAt,value
2019-03-06T00:01:01.728Z,100279.50
2019-03-06T00:02:07.469Z,100282.09
2019-03-06T00:03:11.729Z,100277.33
2019-03-06T00:04:16.199Z,100278.20
2019-03-06T00:05:23.494Z,100277.28
2019-03-06T00:06:28.167Z,100287.20
2019-03-06T00:07:32.420Z,100278.55
2019-03-06T00:08:37.089Z,100280.76
2019-03-06T00:09:44.079Z,100289.00
2019-03-06T00:10:48.353Z,100280.76
2019-03-06T00:11:52.621Z,100285.53
2019-03-06T00:12:59.666Z,100281.17
2019-03-06T00:14:06.631Z,100281.63
2019-03-06T00:15:13.691Z,100289.00
2019-03-06T00:16:18.330Z,100278.13
2019-03-06T00:17:25.334Z,100284.19
2019-03-06T00:18:32.262Z,100272.51
2019-03-06T00:19:36.530Z,100283.31
2019-03-06T00:20:40.803Z,100279.83
2019-03-06T00:21:48.152Z,100283.73
2019-03-06T00:22:52.416Z,100280.72
2019-03-06T00:23:56.697Z,100279.84
2019-03-06T00:25:01.285Z,100285.86
2019-03-06T00:26:06.615Z,100281.51
2019-03-06T00:27:11.345Z,100286.70
2019-03-06T00:28:15.608Z,100285.39
2019-03-06T00:29:19.888Z,100289.25
2019-03-06T00:30:24.361Z,100287.11
2019-03-06T00:31:31.391Z,100292.30
2019-03-06T00:32:38.385Z,100285.78
2019-03-06T00:33:45.321Z,100284.90
2019-03-06T00:34:50.260Z,100290.09
2019-03-06T00:35:56.164Z,100290.09
2019-03-06T00:37:00.446Z,100292.26
2019-03-06T00:38:04.889Z,100291.80
2019-03-06T00:39:12.263Z,100290.96
2019-03-06T00:40:24.305Z,100294.02
2019-03-06T00:41:33.044Z,100293.56
2019-03-06T00:42:39.587Z,100293.60
2019-03-06T00:43:44.130Z,100290.08
2019-03-06T00:44:48.676Z,100295.27
2019-03-06T00:45:55.952Z,100289.24
2019-03-06T00:47:00.220Z,100293.98
2019-03-06T00:48:04.557Z,100292.35
2019-03-06T00:49:11.682Z,100294.94
2019-03-06T00:50:15.967Z,100298.84
2019-03-06T00:51:20.233Z,100297.13
2019-03-06T00:52:24.525Z,100300.97
2019-03-06T00:53:32.290Z,100299.67
2019-03-06T00:54:36.610Z,100300.05
2019-03-06T00:55:43.582Z,100301.76
2019-03-06T00:56:47.882Z,100296.52
2019-03-06T00:57:54.811Z,100291.33
2019-03-06T00:59:02.152Z,100296.48
2019-03-06T01:00:15.578Z,100306.80
2019-03-06T01:01:20.262Z,100303.31
2019-03-06T01:02:27.622Z,100306.34
2019-03-06T01:03:32.287Z,100309.39
2019-03-06T01:04:36.560Z,100311.94
2019-03-06T01:05:40.847Z,100311.52
2019-03-06T01:06:45.479Z,100308.52
2019-03-06T01:07:55.767Z,100305.97
2019-03-06T01:09:00.116Z,100311.11
2019-03-06T01:10:12.986Z,100309.80
2019-03-06T01:11:17.581Z,100311.00
2019-03-06T01:12:24.838Z,100311.42
2019-03-06T01:13:32.072Z,100304.47
2019-03-06T01:14:36.633Z,100310.12
2019-03-06T01:15:40.897Z,100305.81
2019-03-06T01:16:50.891Z,100309.71
2019-03-06T01:17:55.177Z,100312.30
2019-03-06T01:18:59.461Z,100311.46
2019-03-06T01:20:06.040Z,100308.50
2019-03-06T01:21:15.854Z,100315.98
2019-03-06T01:22:20.209Z,100317.28
2019-03-06T01:23:27.265Z,100320.33
2019-03-06T01:24:31.575Z,100316.08
2019-03-06T01:25:41.485Z,100320.38
2019-03-06T01:26:45.767Z,100316.53
2019-03-06T01:27:50.042Z,100316.96
2019-03-06T01:28:54.294Z,100320.89
2019-03-06T01:29:58.730Z,100314.41
2019-03-06T01:31:06.001Z,100314.03
2019-03-06T01:32:11.232Z,100310.98
2019-03-06T01:33:19.875Z,100309.64
2019-03-06T01:34:34.762Z,100318.30
2019-03-06T01:35:40.677Z,100311.81
2019-03-06T01:36:52.343Z,100316.13
2019-03-06T01:37:58.264Z,100317.88
2019-03-06T01:39:16.484Z,100316.97
2019-03-06T01:40:31.185Z,100321.31
2019-03-06T01:41:55.011Z,100322.15
2019-03-06T01:43:04.176Z,100321.73
2019-03-06T01:44:15.878Z,100325.16
2019-03-06T01:45:20.138Z,100320.44
2019-03-06T01:46:24.396Z,100323.86
2019-03-06T01:47:28.728Z,100321.64
2019-03-06T01:48:33.034Z,100323.34
2019-03-06T01:49:38.732Z,100319.03
2019-03-06T01:50:43.369Z,100330.76
2019-03-06T01:51:47.654Z,100327.30
2019-03-06T01:52:54.709Z,100329.05
2019-03-06T01:53:59.036Z,100331.60
2019-03-06T01:55:03.365Z,100330.25
2019-03-06T01:56:07.629Z,100323.34
2019-03-06T01:57:12.282Z,100332.42
2019-03-06T01:58:16.667Z,100331.59
2019-03-06T01:59:21.112Z,100333.77
2019-03-06T02:00:28.274Z,100333.36
2019-03-06T02:01:35.475Z,100330.72
2019-03-06T02:02:42.774Z,100329.89
2019-03-06T02:03:49.920Z,100330.34
2019-03-06T02:04:54.356Z,100329.01
2019-03-06T02:05:59.102Z,100333.72
2019-03-06T02:07:03.834Z,100331.96
2019-03-06T02:08:08.102Z,100332.42
2019-03-06T02:09:14.238Z,100330.62
2019-03-06T02:10:21.160Z,100340.11
2019-03-06T02:11:28.539Z,100344.41
2019-03-06T02:12:32.797Z,100348.70
2019-03-06T02:13:40.014Z,100345.19
2019-03-06T02:14:44.265Z,100338.28
2019-03-06T02:15:51.571Z,100337.34
2019-03-06T02:16:55.825Z,100335.12
2019-03-06T02:18:00.125Z,100341.59
2019-03-06T02:19:04.386Z,100340.73
2019-03-06T02:20:17.628Z,100340.66
2019-03-06T02:21:24.858Z,100338.53
2019-03-06T02:22:31.814Z,100343.61
2019-03-06T02:23:36.109Z,100337.95
2019-03-06T02:24:43.979Z,100343.14
2019-03-06T02:25:48.581Z,100342.25
2019-03-06T02:26:52.865Z,100343.13
2019-03-06T02:27:57.127Z,100343.53
2019-03-06T02:29:04.102Z,100343.94
2019-03-06T02:30:14.850Z,100346.91
2019-03-06T02:31:21.807Z,100347.78
2019-03-06T02:32:28.791Z,100346.88
2019-03-06T02:33:33.083Z,100342.12
2019-03-06T02:34:37.836Z,100330.41
2019-03-06T02:35:42.166Z,100332.52
2019-03-06T02:36:46.521Z,100339.80
2019-03-06T02:37:50.757Z,100339.75
2019-03-06T02:38:58.054Z,100341.92
2019-03-06T02:40:07.870Z,100338.86
2019-03-06T02:41:12.113Z,100347.06
2019-03-06T02:42:21.546Z,100344.52
2019-03-06T02:43:25.811Z,100348.81
2019-03-06T02:44:32.912Z,100350.52
2019-03-06T02:45:37.278Z,100347.88
2019-03-06T02:46:44.852Z,100355.66
2019-03-06T02:47:50.756Z,100350.45
2019-03-06T02:48:58.026Z,100351.29
2019-03-06T02:50:03.836Z,100355.98
2019-03-06T02:51:09.238Z,100357.20
2019-03-06T02:52:16.917Z,100362.74
2019-03-06T02:53:21.220Z,100361.44
2019-03-06T02:54:25.543Z,100357.06
2019-03-06T02:55:32.524Z,100363.05
2019-03-06T02:56:39.472Z,100359.98
2019-03-06T02:57:54.187Z,100362.51
2019-03-06T02:59:00.114Z,100356.85
2019-03-06T03:00:31.048Z,100360.66
2019-03-06T03:01:53.083Z,100363.11
2019-03-06T03:03:07.814Z,100366.09
2019-03-06T03:04:25.725Z,100362.61
2019-03-06T03:05:31.625Z,100369.09
2019-03-06T03:06:40.998Z,100362.59
2019-03-06T03:07:45.646Z,100360.40
2019-03-06T03:08:49.936Z,100362.92
2019-03-06T03:09:54.398Z,100367.64
2019-03-06T03:10:58.698Z,100362.78
2019-03-06T03:12:02.961Z,100371.00
2019-03-06T03:13:07.294Z,100367.06
2019-03-06T03:14:11.560Z,100364.47
2019-03-06T03:15:15.864Z,100371.83
2019-03-06T03:16:20.131Z,100367.53
2019-03-06T03:17:24.409Z,100372.24
2019-03-06T03:18:33.246Z,100370.02
2019-03-06T03:19:37.556Z,100369.97
2019-03-06T03:20:42.001Z,100364.77
2019-03-06T03:21:50.207Z,100369.41
2019-03-06T03:22:57.614Z,100369.81
2019-03-06T03:24:04.921Z,100366.30
2019-03-06T03:25:09.537Z,100372.30
2019-03-06T03:26:14.183Z,100373.09
2019-03-06T03:27:21.482Z,100373.56
2019-03-06T03:28:28.425Z,100375.70
2019-03-06T03:29:32.698Z,100363.58
2019-03-06T03:30:37.034Z,100363.97
2019-03-06T03:31:41.371Z,100374.23
2019-03-06T03:32:45.668Z,100372.92
2019-03-06T03:33:52.667Z,100366.05
2019-03-06T03:34:59.625Z,100372.05
2019-03-06T03:36:04.319Z,100373.79
2019-03-06T03:37:08.598Z,100370.25
2019-03-06T03:38:15.841Z,100370.25
2019-03-06T03:39:23.085Z,100364.99
2019-03-06T03:40:27.673Z,100364.58
2019-03-06T03:41:31.923Z,100361.98
2019-03-06T03:42:36.704Z,100369.66
2019-03-06T03:43:40.995Z,100365.28
2019-03-06T03:44:45.274Z,100365.27
2019-03-06T03:45:52.478Z,100368.70
2019-03-06T03:46:56.775Z,100366.08
2019-03-06T03:48:01.050Z,100376.42
2019-03-06T03:49:05.337Z,100371.19
2019-03-06T03:50:10.877Z,100366.40
2019-03-06T03:51:15.635Z,100371.55
2019-03-06T03:52:19.972Z,100367.62
2019-03-06T03:53:24.239Z,100365.11
2019-03-06T03:54:31.423Z,100368.91
2019-03-06T03:55:38.654Z,100375.02
2019-03-06T03:56:42.927Z,100377.11
2019-03-06T03:57:47.240Z,100370.59
2019-03-06T03:58:54.244Z,100374.85
2019-03-06T03:59:58.523Z,100373.09
2019-03-06T04:01:02.828Z,100377.85
2019-03-06T04:02:07.760Z,100384.30
2019-03-06T04:03:12.024Z,100377.42
2019-03-06T04:04:19.231Z,100377.45
2019-03-06T04:05:26.258Z,100377.94
2019-03-06T04:06:33.639Z,100380.19
2019-03-06T04:07:37.917Z,100380.19
2019-03-06T04:08:45.088Z,100377.92
2019-03-06T04:09:49.349Z,100375.73
2019-03-06T04:10:56.761Z,100380.04
2019-03-06T04:12:01.032Z,100379.22
2019-03-06T04:13:05.313Z,100381.89
2019-03-06T04:14:12.497Z,100381.94
2019-03-06T04:15:17.827Z,100383.71
2019-03-06T04:16:26.518Z,100384.17
2019-03-06T04:17:30.806Z,100379.83
2019-03-06T04:18:35.446Z,100377.66
2019-03-06T04:19:43.189Z,100379.80
2019-03-06T04:20:48.351Z,100377.13
2019-03-06T04:21:53.279Z,100382.38
2019-03-06T04:23:00.495Z,100378.54
2019-03-06T04:24:04.790Z,100375.05
2019-03-06T04:25:12.382Z,100380.23
2019-03-06T04:26:16.737Z,100375.02
2019-03-06T04:27:21.000Z,100376.33
2019-03-06T04:28:28.279Z,100376.31
2019-03-06T04:29:32.547Z,100374.53
2019-03-06T04:30:37.147Z,100370.59
2019-03-06T04:31:42.404Z,100373.63
2019-03-06T04:32:46.651Z,100377.06
2019-03-06T04:33:50.917Z,100386.11
2019-03-06T04:35:05.105Z,100385.28
2019-03-06T04:36:12.428Z,100384.42
2019-03-06T04:37:16.694Z,100385.38
2019-03-06T04:38:23.900Z,100381.03
2019-03-06T04:39:30.844Z,100385.36
2019-03-06T04:40:35.142Z,100386.19
2019-03-06T04:41:39.435Z,100388.88
2019-03-06T04:42:43.700Z,100387.25
2019-03-06T04:43:47.967Z,100386.39
2019-03-06T04:44:52.240Z,100389.45
2019-03-06T04:45:56.500Z,100387.34
2019-03-06T04:47:01.108Z,100390.86
2019-03-06T04:48:05.393Z,100391.34
2019-03-06T04:49:10.031Z,100390.86
2019-03-06T04:50:18.139Z,100386.98
2019-03-06T04:51:22.729Z,100390.46
2019-03-06T04:52:27.168Z,100385.29
2019-03-06T04:53:31.609Z,100382.70
2019-03-06T04:54:35.859Z,100386.15
2019-03-06T04:55:40.119Z,100383.06
2019-03-06T04:56:45.660Z,100384.75
2019-03-06T04:57:49.944Z,100390.82
2019-03-06T04:58:54.202Z,100384.36
2019-03-06T04:59:59.534Z,100389.95
2019-03-06T05:01:06.884Z,100385.25
2019-03-06T05:02:11.181Z,100383.96
2019-03-06T05:03:18.295Z,100389.94
2019-03-06T05:04:22.576Z,100388.63
2019-03-06T05:05:27.001Z,100388.56
2019-03-06T05:06:31.309Z,100386.34
2019-03-06T05:07:37.081Z,100390.17
2019-03-06T05:08:41.795Z,100393.16
2019-03-06T05:09:50.159Z,100384.48
2019-03-06T05:10:56.040Z,100394.41
2019-03-06T05:12:00.323Z,100387.02
2019-03-06T05:13:04.752Z,100392.58
2019-03-06T05:14:09.032Z,100385.61
2019-03-06T05:15:19.479Z,100386.47
2019-03-06T05:16:25.918Z,100389.78
2019-03-06T05:17:39.355Z,100394.52
2019-03-06T05:18:49.665Z,100397.05
2019-03-06T05:19:53.964Z,100395.72
2019-03-06T05:20:58.239Z,100399.11
2019-03-06T05:22:04.881Z,100396.94
2019-03-06T05:23:10.496Z,100396.50
2019-03-06T05:24:17.713Z,100400.73
2019-03-06T05:25:22.379Z,100397.70
2019-03-06T05:26:26.647Z,100398.03
2019-03-06T05:27:31.275Z,100397.64
2019-03-06T05:28:36.557Z,100393.81
2019-03-06T05:29:41.491Z,100391.96
2019-03-06T05:30:45.946Z,100395.03
2019-03-06T05:32:19.304Z,100392.08
2019-03-06T05:33:23.649Z,100392.47
2019-03-06T05:34:28.209Z,100392.08
2019-03-06T05:36:10.132Z,100393.33
2019-03-06T05:37:36.860Z,100391.16
2019-03-06T05:39:07.793Z,100389.06
2019-03-06T05:40:13.853Z,100392.47
2019-03-06T05:41:18.122Z,100393.77
2019-03-06T05:42:25.290Z,100391.65
2019-03-06T05:43:31.455Z,100390.79
2019-03-06T05:44:35.759Z,100394.66
2019-03-06T05:45:43.065Z,100389.94
2019-03-06T05:46:47.357Z,100391.16
2019-03-06T05:47:52.410Z,100390.33
2019-03-06T05:48:56.677Z,100383.48
2019-03-06T05:50:05.001Z,100381.82
2019-03-06T05:51:12.489Z,100383.11
2019-03-06T05:52:19.763Z,100377.55
2019-03-06T05:53:26.915Z,100382.34
2019-03-06T05:54:31.359Z,100380.13
2019-03-06T05:55:38.586Z,100382.70
2019-03-06T05:56:42.856Z,100384.88
2019-03-06T05:57:47.136Z,100385.79
2019-03-06T05:58:54.107Z,100392.33
2019-03-06T06:00:01.318Z,100396.66
2019-03-06T06:01:08.787Z,100392.05
2019-03-06T06:02:13.063Z,100390.38
2019-03-06T06:03:20.464Z,100393.94
2019-03-06T06:04:24.748Z,100394.95
2019-03-06T06:05:31.867Z,100392.02
2019-03-06T06:06:39.066Z,100399.80
2019-03-06T06:07:43.349Z,100403.75
2019-03-06T06:08:47.602Z,100402.89
2019-03-06T06:09:52.244Z,100406.37
2019-03-06T06:10:59.616Z,100404.29
2019-03-06T06:12:07.254Z,100400.57
2019-03-06T06:13:11.573Z,100403.64
2019-03-06T06:14:15.851Z,100407.92
2019-03-06T06:15:23.443Z,100405.90
2019-03-06T06:16:30.652Z,100405.11
2019-03-06T06:17:35.105Z,100409.42
2019-03-06T06:18:40.448Z,100413.80
2019-03-06T06:19:44.713Z,100405.28
2019-03-06T06:20:53.540Z,100412.67
2019-03-06T06:21:59.437Z,100410.66
2019-03-06T06:23:05.357Z,100407.66
2019-03-06T06:24:15.462Z,100407.73
2019-03-06T06:25:22.679Z,100405.64
2019-03-06T06:26:29.679Z,100404.01
2019-03-06T06:27:36.652Z,100404.44
2019-03-06T06:28:40.916Z,100404.04
2019-03-06T06:29:45.173Z,100406.63
2019-03-06T06:30:52.508Z,100408.48
2019-03-06T06:31:56.795Z,100409.77
2019-03-06T06:33:02.122Z,100402.39
2019-03-06T06:34:06.418Z,100404.53
2019-03-06T06:35:16.378Z,100407.66
2019-03-06T06:36:22.740Z,100402.48
2019-03-06T06:37:26.984Z,100411.62
2019-03-06T06:38:31.547Z,100410.33
2019-03-06T06:39:38.730Z,100402.58
2019-03-06T06:40:42.981Z,100413.75
2019-03-06T06:41:47.655Z,100406.92
2019-03-06T06:42:51.911Z,100408.17
2019-03-06T06:43:56.592Z,100406.46
2019-03-06T06:45:00.861Z,100405.23
2019-03-06T06:46:05.119Z,100409.59
2019-03-06T06:47:09.696Z,100400.48
2019-03-06T06:48:18.549Z,100393.98
2019-03-06T06:49:22.809Z,100398.75
2019-03-06T06:50:30.785Z,100396.11
2019-03-06T06:51:56.712Z,100404.75
2019-03-06T06:53:28.276Z,100405.64
2019-03-06T06:54:42.183Z,100400.55
2019-03-06T06:55:58.363Z,100398.57
2019-03-06T06:57:14.831Z,100404.57
2019-03-06T06:58:47.054Z,100400.44
2019-03-06T07:00:31.190Z,100406.09
2019-03-06T07:02:21.129Z,100407.94
2019-03-06T07:03:41.680Z,100403.31
2019-03-06T07:05:12.224Z,100403.91
2019-03-06T07:06:32.743Z,100396.20
2019-03-06T07:07:38.662Z,100396.75
2019-03-06T07:08:44.982Z,100400.66
2019-03-06T07:09:50.921Z,100396.77
2019-03-06T07:11:02.512Z,100392.93
2019-03-06T07:12:17.390Z,100398.65
2019-03-06T07:13:38.487Z,100390.52
2019-03-06T07:14:59.083Z,100396.19
2019-03-06T07:16:22.357Z,100391.88
2019-03-06T07:17:30.907Z,100393.17
2019-03-06T07:18:36.828Z,100389.34
2019-03-06T07:19:45.527Z,100388.10
2019-03-06T07:20:54.084Z,100393.77
2019-03-06T07:22:01.078Z,100388.67
2019-03-06T07:23:22.025Z,100392.16
2019-03-06T07:24:44.509Z,100385.30
2019-03-06T07:25:50.506Z,100389.72
2019-03-06T07:27:19.697Z,100391.06
2019-03-06T07:28:28.700Z,100386.77
2019-03-06T07:29:35.572Z,100385.92
2019-03-06T07:30:44.320Z,100395.84
2019-03-06T07:32:08.934Z,100388.58
2019-03-06T07:33:26.664Z,100393.82
2019-03-06T07:34:48.921Z,100392.56
2019-03-06T07:36:13.414Z,100391.30
2019-03-06T07:37:28.440Z,100390.43
2019-03-06T07:38:25.942Z,100390.94
2019-03-06T07:39:32.180Z,100385.33
2019-03-06T07:40:54.803Z,100387.09
2019-03-06T07:42:03.731Z,100385.38
2019-03-06T07:43:09.643Z,100380.67
2019-03-06T07:44:29.820Z,100384.58
2019-03-06T07:45:50.482Z,100387.63
2019-03-06T07:46:59.444Z,100388.98
2019-03-06T07:48:20.018Z,100387.29
2019-03-06T07:49:28.814Z,100388.17
2019-03-06T07:50:40.384Z,100383.39
2019-03-06T07:51:53.167Z,100388.63
2019-03-06T07:53:52.316Z,100391.27
2019-03-06T07:55:10.733Z,100387.83
2019-03-06T07:56:19.656Z,100380.55
2019-03-06T07:57:28.535Z,100380.77
2019-03-06T07:58:56.465Z,100372.69
2019-03-06T08:00:06.451Z,100373.52
2019-03-06T08:01:17.238Z,100373.91
2019-03-06T08:02:26.456Z,100375.66
2019-03-06T08:03:30.723Z,100382.61
2019-03-06T08:04:38.061Z,100381.31
2019-03-06T08:05:42.344Z,100380.43
2019-03-06T08:07:00.163Z,100383.03
2019-03-06T08:08:04.479Z,100388.70
2019-03-06T08:09:09.662Z,100383.95
2019-03-06T08:10:16.878Z,100388.73
2019-03-06T08:11:25.817Z,100388.75
2019-03-06T08:12:31.781Z,100396.57
2019-03-06T08:13:37.967Z,100390.55
2019-03-06T08:14:59.818Z,100391.84
2019-03-06T08:16:08.632Z,100390.16
2019-03-06T08:17:34.001Z,100391.01
2019-03-06T08:18:39.886Z,100390.59
2019-03-06T08:20:02.008Z,100391.08
2019-03-06T08:21:13.756Z,100390.20
2019-03-06T08:22:22.349Z,100385.86
2019-03-06T08:23:28.244Z,100380.67
2019-03-06T08:24:34.192Z,100378.52
2019-03-06T08:25:48.910Z,100383.73
2019-03-06T08:26:56.358Z,100385.92
2019-03-06T08:28:03.918Z,100378.10
2019-03-06T08:29:08.188Z,100380.24
2019-03-06T08:30:12.645Z,100389.81
2019-03-06T08:31:30.533Z,100387.64
2019-03-06T08:32:34.904Z,100389.81
2019-03-06T08:33:39.158Z,100379.84
2019-03-06T08:34:43.422Z,100384.19
2019-03-06T08:35:48.128Z,100382.42
2019-03-06T08:36:52.393Z,100378.98
2019-03-06T08:37:57.048Z,100381.59
2019-03-06T08:39:01.320Z,100378.08
2019-03-06T08:40:11.050Z,100367.66
2019-03-06T08:41:15.487Z,100365.91
2019-03-06T08:42:19.749Z,100375.48
2019-03-06T08:43:24.049Z,100368.09
2019-03-06T08:44:28.501Z,100366.31
2019-03-06T08:45:50.021Z,100360.64
2019-03-06T08:46:58.997Z,100356.28
2019-03-06T08:48:05.836Z,100360.21
2019-03-06T08:49:26.746Z,100354.98
2019-03-06T08:50:50.543Z,100358.42
2019-03-06T08:51:59.350Z,100348.40
2019-03-06T08:53:10.963Z,100353.57
2019-03-06T08:54:16.881Z,100357.45
2019-03-06T08:55:31.075Z,100349.09
2019-03-06T08:56:45.741Z,100347.31
2019-03-06T08:58:00.695Z,100348.97
2019-03-06T08:59:06.822Z,100347.62
2019-03-06T09:00:26.077Z,100340.09
2019-03-06T09:01:35.122Z,100341.72
2019-03-06T09:02:43.697Z,100337.20
2019-03-06T09:03:49.696Z,100342.33
2019-03-06T09:05:04.313Z,100335.79
2019-03-06T09:06:19.203Z,100340.02
2019-03-06T09:07:25.118Z,100329.05
2019-03-06T09:08:36.877Z,100328.95
2019-03-06T09:09:42.804Z,100328.59
2019-03-06T09:11:02.444Z,100328.20
2019-03-06T09:12:11.301Z,100325.57
2019-03-06T09:13:33.291Z,100331.25
2019-03-06T09:14:55.217Z,100328.31
2019-03-06T09:16:03.818Z,100330.14
2019-03-06T09:17:09.746Z,100324.05
2019-03-06T09:18:30.258Z,100317.90
2019-03-06T09:19:45.225Z,100312.53
2019-03-06T09:21:00.322Z,100307.23
2019-03-06T09:22:15.099Z,100306.29
2019-03-06T09:23:40.413Z,100303.28
2019-03-06T09:24:52.023Z,100298.39
2019-03-06T09:26:13.155Z,100293.61
2019-03-06T09:27:21.976Z,100290.02
2019-03-06T09:28:28.001Z,100287.30
2019-03-06T09:29:48.742Z,100282.86
2019-03-06T09:31:00.746Z,100282.78
2019-03-06T09:32:23.931Z,100279.58
2019-03-06T09:33:32.737Z,100275.97
2019-03-06T09:34:50.361Z,100269.48
2019-03-06T09:36:05.271Z,100276.99
2019-03-06T09:37:11.174Z,100279.09
2019-03-06T09:38:32.018Z,100273.67
2019-03-06T09:39:40.527Z,100273.76
2019-03-06T09:40:58.470Z,100280.64
2019-03-06T09:42:07.068Z,100271.44
2019-03-06T09:43:16.108Z,100273.31
2019-03-06T09:44:24.712Z,100265.05
2019-03-06T09:45:33.888Z,100267.67
2019-03-06T09:46:52.088Z,100269.18
2019-03-06T09:48:03.931Z,100266.59
2019-03-06T09:49:15.915Z,100275.27
2019-03-06T09:50:30.557Z,100277.28
2019-03-06T09:51:36.502Z,100271.58
2019-03-06T09:52:45.546Z,100263.20
2019-03-06T09:53:51.438Z,100263.14
2019-03-06T09:55:00.857Z,100261.22
2019-03-06T09:56:09.448Z,100260.75
2019-03-06T09:57:24.751Z,100252.70
2019-03-06T09:58:46.750Z,100250.41
2019-03-06T10:00:01.769Z,100253.28
2019-03-06T10:01:19.741Z,100245.52
2019-03-06T10:02:35.179Z,100248.55
2019-03-06T10:03:51.259Z,100248.27
2019-03-06T10:04:59.925Z,100255.75
2019-03-06T10:06:06.137Z,100256.62
2019-03-06T10:07:12.353Z,100252.13
2019-03-06T10:08:21.143Z,100253.99
2019-03-06T10:09:29.975Z,100255.36
2019-03-06T10:10:57.176Z,100255.05
2019-03-06T10:12:10.494Z,100254.13
2019-03-06T10:13:16.595Z,100242.50
2019-03-06T10:14:37.705Z,100249.23
2019-03-06T10:15:49.821Z,100249.06
2019-03-06T10:17:07.527Z,100245.78
2019-03-06T10:18:24.186Z,100246.30
2019-03-06T10:19:30.397Z,100249.70
2019-03-06T10:20:34.679Z,100247.14
2019-03-06T10:21:41.621Z,100244.38
2019-03-06T10:22:49.126Z,100241.05
2019-03-06T10:23:53.457Z,100230.27
2019-03-06T10:25:02.369Z,100236.04
2019-03-06T10:26:07.726Z,100232.82
2019-03-06T10:27:16.633Z,100222.81
2019-03-06T10:28:27.840Z,100227.47
2019-03-06T10:29:29.562Z,100229.61
2019-03-06T10:30:37.038Z,100231.02
2019-03-06T10:31:44.303Z,100224.16
2019-03-06T10:32:51.474Z,100224.36
2019-03-06T10:33:58.695Z,100222.02
2019-03-06T10:35:05.680Z,100218.80
2019-03-06T10:36:10.012Z,100221.39
2019-03-06T10:37:14.308Z,100222.00
2019-03-06T10:38:18.864Z,100222.86
2019-03-06T10:39:23.196Z,100226.37
2019-03-06T10:40:27.465Z,100222.91
2019-03-06T10:41:31.928Z,100222.48
2019-03-06T10:42:36.534Z,100222.09
2019-03-06T10:43:48.891Z,100216.47
2019-03-06T10:44:46.774Z,100214.11
2019-03-06T10:45:56.704Z,100215.70
2019-03-06T10:47:00.987Z,100207.36
2019-03-06T10:48:05.923Z,100200.08
2019-03-06T10:49:10.415Z,100204.62
2019-03-06T10:50:26.667Z,100204.59
2019-03-06T10:51:31.157Z,100196.63
2019-03-06T10:52:38.375Z,100195.97
2019-03-06T10:53:45.323Z,100201.30
2019-03-06T10:54:49.767Z,100187.84
2019-03-06T10:55:56.871Z,100197.70
2019-03-06T10:57:01.136Z,100190.98
2019-03-06T10:58:05.723Z,100189.55
2019-03-06T10:59:10.067Z,100188.19
2019-03-06T11:00:28.703Z,100183.27
2019-03-06T11:01:33.320Z,100179.63
2019-03-06T11:02:41.900Z,100179.48
2019-03-06T11:03:53.529Z,100181.59
2019-03-06T11:05:02.278Z,100185.39
2019-03-06T11:06:06.530Z,100167.98
2019-03-06T11:07:10.799Z,100173.31
2019-03-06T11:08:15.332Z,100169.91
2019-03-06T11:09:19.952Z,100171.38
2019-03-06T11:10:27.817Z,100168.61
2019-03-06T11:11:32.344Z,100170.23
2019-03-06T11:12:36.621Z,100166.09
2019-03-06T11:13:43.574Z,100155.58
2019-03-06T11:14:48.206Z,100166.29
2019-03-06T11:15:55.636Z,100164.58
2019-03-06T11:16:58.494Z,100163.83
2019-03-06T11:18:03.099Z,100156.69
2019-03-06T11:19:07.875Z,100156.69
2019-03-06T11:20:40.894Z,100152.48
2019-03-06T11:21:45.154Z,100158.46
2019-03-06T11:22:50.927Z,100155.51
2019-03-06T11:23:55.202Z,100150.23
2019-03-06T11:24:59.483Z,100151.78
2019-03-06T11:26:03.746Z,100148.22
2019-03-06T11:27:11.322Z,100142.14
2019-03-06T11:28:16.684Z,100144.95
2019-03-06T11:29:22.216Z,100134.56
2019-03-06T11:30:35.372Z,100111.50
2019-03-06T11:31:39.626Z,100111.50
2019-03-06T11:32:44.216Z,100132.78
2019-03-06T11:33:48.806Z,100106.02
2019-03-06T11:34:55.917Z,100123.56
2019-03-06T11:36:03.454Z,100111.17
2019-03-06T11:37:07.712Z,100123.45
2019-03-06T11:38:12.016Z,100126.49
2019-03-06T11:39:16.248Z,100126.49
2019-03-06T11:40:23.711Z,100107.98
2019-03-06T11:41:30.701Z,100107.98
2019-03-06T11:42:35.957Z,100124.05
2019-03-06T11:43:43.526Z,100113.23
2019-03-06T11:44:48.527Z,100122.60
2019-03-06T11:45:52.947Z,100122.60
2019-03-06T11:46:57.372Z,100128.55
2019-03-06T11:48:02.502Z,100128.55
2019-03-06T11:49:07.356Z,100124.80
2019-03-06T11:50:12.292Z,100124.80
2019-03-06T11:51:16.538Z,100124.41
2019-03-06T11:52:22.473Z,100112.29
2019-03-06T11:53:26.851Z,100117.92
2019-03-06T11:54:31.487Z,100115.88
2019-03-06T11:55:35.767Z,100115.88
2019-03-06T11:56:40.673Z,100104.91
2019-03-06T11:57:48.066Z,100099.38
2019-03-06T11:58:52.358Z,100107.52
2019-03-06T11:59:57.058Z,100103.89
2019-03-06T12:01:01.719Z,100100.36
2019-03-06T12:02:06.155Z,100093.61
2019-03-06T12:03:14.107Z,100094.87
2019-03-06T12:04:18.626Z,100071.45
2019-03-06T12:05:23.156Z,100084.55
2019-03-06T12:06:27.421Z,100089.61
2019-03-06T12:07:31.882Z,100084.34
2019-03-06T12:08:42.862Z,100084.34
2019-03-06T12:09:42.375Z,100082.77
2019-03-06T12:10:46.797Z,100079.78
2019-03-06T12:11:51.142Z,100082.20
2019-03-06T12:12:55.399Z,100082.20
2019-03-06T12:13:59.701Z,100052.16
2019-03-06T12:15:05.434Z,100071.36
2019-03-06T12:16:10.764Z,100070.44
2019-03-06T12:17:15.103Z,100069.30
2019-03-06T12:18:22.976Z,100069.30
2019-03-06T12:19:30.323Z,100065.05
2019-03-06T12:20:34.869Z,100070.13
2019-03-06T12:21:39.565Z,100068.42
2019-03-06T12:22:46.839Z,100060.91
2019-03-06T12:23:52.230Z,100028.16
2019-03-06T12:24:56.556Z,100028.16
2019-03-06T12:26:03.665Z,100050.26
2019-03-06T12:31:07.414Z,100044.05
2019-03-06T12:32:11.837Z,100036.11
2019-03-06T12:33:18.573Z,100031.48
2019-03-06T12:34:22.871Z,100029.45
2019-03-06T12:35:29.822Z,100029.14
2019-03-06T12:36:37.005Z,100029.83
2019-03-06T12:37:46.859Z,100012.83
2019-03-06T12:38:47.889Z,100020.84
2019-03-06T12:39:52.570Z,100015.67
2019-03-06T12:40:56.905Z,100007.38
2019-03-06T12:42:03.887Z,100015.92
2019-03-06T12:43:08.138Z,100005.91
2019-03-06T12:44:12.434Z,100011.88
2019-03-06T12:45:20.051Z,100014.32
2019-03-06T12:46:24.501Z,100007.41
2019-03-06T12:47:28.732Z,99993.64
2019-03-06T12:48:33.820Z,99988.83
2019-03-06T12:49:38.088Z,99993.24
2019-03-06T12:50:42.406Z,99998.57
2019-03-06T12:51:53.995Z,99994.28
2019-03-06T12:52:52.677Z,99986.63
2019-03-06T12:54:04.115Z,99986.59
2019-03-06T13:03:02.676Z,99980.80
2019-03-06T13:07:21.969Z,99955.87
2019-03-06T13:08:26.380Z,99949.13
2019-03-06T13:09:30.901Z,99954.38
2019-03-06T13:10:35.174Z,99950.73
2019-03-06T13:11:39.902Z,99950.51